Airfield :
LOGIN :

Register | Disclaimer

   EN    FR    IT 

 










Legend :    VFR   Marginal VFR   IFR   Intensive IFR   Very Intensive IFR
Visi :
Ceiling :
>= 8 km
>= 3000ft
5 to 8 km
1000 to 3000 ft
1500m to 5 km
500 to 1000 ft
800 to 1500m
200 to 500 ft
< 800m
< 200 ft
Symbols :   Thunderstorms  Fog  Heavy snow  Heavy precipitations  Wind > 20 kt
SIGMETs :     Misc.  Thunderstorms  Icing  Turbulence  Mountain Waves  Volcanic Ashes







- Airport Elevation : 1416 ft
- IATA code : ZRH


LSZH - Zurich

CURRENT METAR :
  • 201520Z 06008KT 9999 FEW030 BKN140 18/10 Q1016 NOSIG

EXPIRED METARs :
  • 201450Z 08007KT 9999 FEW030 BKN140 18/10 Q1017 NOSIG
  • 201420Z 04007KT 350V080 9999 FEW030 BKN160 18/10 Q1017 NOSIG
  • 201350Z 04006KT 360V090 9999 FEW030 BKN160 18/10 Q1017 NOSIG
  • 201320Z 04006KT 360V070 9999 FEW030 SCT040 BKN140 18/10 Q1018 NOSIG
  • 201250Z 04005KT 340V110 9999 FEW030 BKN040 18/10 Q1018 NOSIG

TAF TAF LSZH
Valid from the 20 at 15:00 until the 21 at 21:00 UTC


201425Z 2015/2121 04006KT 9999 FEW030 BKN160 TX19/2015Z TN09/2104Z TX23/2114Z
PROB30 2018/2021 04010KT
BECMG 2020/2022 VRB03KT
PROB30 2101/2106 4000 BKN005
PROB30
TEMPO 2114/2118 16012KT 4000 TSRA FEW050CB BKN080
ATIS : +41 43 816 2295 (DEP) +41 43 816 2294 (ARR)
No reported NOTAMs for that airfield.
1 SIGMET reported for the Switzerland FIR (LSAS) :
 
SIGMET 1  cancelation
LSAS SIGMET 2 VALID 201502/201530 LSZH
LSAS SWITZERLAND FIR/UIR CNL SIGMET 1 201332/201530=



MET'MAP, your aeronautical weather chart ! - Copyright ORBIFLY December 2007 - Disclaimer

ORBIFLY MET'MAP TEAM :

Programming & Development : Alexandra Zaïnal
Concept & Development : Baudouin d'Aumeries
Co-Development & Prog : Marc-Olivier Méhu
Technical & hardware support : Manuel Goepfert

Contact : metmap@orbifly.com




SOURCES & CREDITS :

   NOAA